Salem, OR

6:01 AM PDT on May 06, 2015 (GMT -0700)
Center & Cordon NE | | Change Station
CLOSE
Current Station
Personal Weather Station
Location: Salem, OR
Elevation: 210 ft
Nearby Weather Stations

Elev 210 ft 44.94 °N, 122.96 °W | Updated 1 minute ago

Light Rain
Light Rain
44.0 °F
Feels Like 44 °F
N
1.0
Wind Variable Wind from North
Gusts 1.2 mph

Today
High -- | Low -- °F
--% Chance of Precip.
Yesterday
High -- | Low -- °F
Precip. -- in
5:54 AM 8:23 PM
Waning Gibbous, 94% visible
Pressure 30.11 in
Visibility 9.0 miles
Clouds Few 2800 ft
Overcast 3500 ft
Windchill 44 °F
Dew Point 43 °F
Humidity 96%
Rainfall 0.05 in
Snow Depth Not available.
UV 0 out of 12
Pollen 6.70 out of 12
Air Quality Not available.
Flu Activity Regional
METAR KSLE 061256Z AUTO 00000KT 9SM -RA FEW028 OVC035 07/06 A3011 RMK AO2 SLP195 P0002 T00720061

More Conditions Fewer Conditions

Pressure 30.11 in
Visibility 9.0 miles
Clouds Few 2800 ft
Overcast 3500 ft
Windchill 44 °F
Dew Point 43 °F
Humidity 96%
Rainfall 0.05 in
Snow Depth Not available.
UV 0 out of 12
Pollen 6.70 out of 12
Air Quality Not available.
Flu Activity Regional
METAR KSLE 061256Z AUTO 00000KT 9SM -RA FEW028 OVC035 07/06 A3011 RMK AO2 SLP195 P0002 T00720061

More Conditions Fewer Conditions

10-Day Weather Forecast

Almanac

Astronomy

May. 06, 2015 Rise Set
Actual Time
Civil Twilight
Nautical Twilight
Astronomical Twilight
Moon
Length of Visible Light
Length of Day
Tomorrow will be .
, % of the Moon is Illuminated

Today's Extremes

State Highs State Lows

Community

WunderPhotos

Upload Photos

1,818,892 photos uploaded!

WunderBlogs® & News

Nearby

Air Quality

  Air Quality AQ Index Pollutant
Not available.

Snow Depth

Station Depth Elevation

Earthquake Activity

City Distance Mag. Time & Date
Minimum magnitude displayed is 2.5.

Coastal Water Temperatures

Place Temperature

Stations

Nearby Weather Stations

Station Location Temp. Windchill Dew Point Humidity Wind Precip. Elev Updated Type